Time;durP1;ratioP1;P1;durP2;ratioP2;P2;SDS_P1;SDS_P2;PMS_P1;PMS_P2;Temp;Humidity;BMP_temperature;BMP_pressure;BME280_temperature;BME280_humidity;BME280_pressure;Samples;Min_cycle;Max_cycle;Signal;HPM_P1;HPM_P2
2022/04/09 00:02:08;;;;;;;14.27;2.58;;;7.20;95.20;;;;;;5032712;28;20447;-81
2022/04/09 00:04:34;;;;;;;12.93;2.28;;;7.20;95.20;;;;;;5033424;28;20021;-81
2022/04/09 00:06:59;;;;;;;20.20;2.13;;;7.20;95.20;;;;;;5033096;28;20029;-80
2022/04/09 00:09:25;;;;;;;18.65;2.03;;;7.20;95.20;;;;;;5032549;28;20091;-80
2022/04/09 00:11:51;;;;;;;11.07;1.63;;;7.20;95.30;;;;;;5033063;28;20063;-80
2022/04/09 00:14:17;;;;;;;17.95;1.98;;;7.10;95.40;;;;;;5032662;28;20037;-80
2022/04/09 00:16:43;;;;;;;11.70;1.88;;;7.10;95.40;;;;;;5032748;28;20132;-80
2022/04/09 00:19:09;;;;;;;17.50;1.77;;;7.10;95.50;;;;;;5033174;28;20049;-80
2022/04/09 00:21:35;;;;;;;14.02;1.98;;;7.00;95.60;;;;;;5032445;28;20080;-82
2022/04/09 00:24:00;;;;;;;20.63;2.28;;;7.00;95.90;;;;;;5033127;28;20030;-81
2022/04/09 00:26:26;;;;;;;17.10;1.88;;;7.00;95.70;;;;;;5034103;28;20037;-81
2022/04/09 00:28:52;;;;;;;18.92;2.15;;;6.90;95.80;;;;;;5036777;28;20022;-82
2022/04/09 00:31:18;;;;;;;18.70;2.85;;;6.90;95.90;;;;;;5037038;28;20029;-82
2022/04/09 00:33:43;;;;;;;15.88;1.48;;;6.90;96.00;;;;;;5036841;28;20032;-82
2022/04/09 00:36:09;;;;;;;14.13;1.55;;;6.80;96.10;;;;;;5036686;28;20037;-82
2022/04/09 00:38:34;;;;;;;11.93;1.73;;;6.90;96.10;;;;;;5036790;28;20029;-82
2022/04/09 00:41:00;;;;;;;11.77;1.77;;;6.90;96.10;;;;;;5036341;28;20059;-82
2022/04/09 00:43:25;;;;;;;17.52;2.35;;;6.90;96.10;;;;;;5036659;28;20021;-82
2022/04/09 00:45:51;;;;;;;13.07;2.05;;;6.90;96.10;;;;;;5036183;28;20029;-82
2022/04/09 00:48:20;;;;;;;19.77;2.25;;;6.90;96.10;;;;;;5036551;28;20028;-82
2022/04/09 00:50:47;;;;;;;13.07;1.75;;;6.90;96.20;;;;;;5036559;28;20017;-82
2022/04/09 00:53:15;;;;;;;18.83;3.22;;;7.00;96.20;;;;;;5036492;28;20045;-82
2022/04/09 00:58:28;;;;;;;15.63;1.77;;;7.00;96.10;;;;;;5035296;28;20383;-82
2022/04/09 01:00:54;;;;;;;16.83;2.22;;;7.00;96.00;;;;;;5036579;28;20065;-82
2022/04/09 01:03:20;;;;;;;11.00;1.60;;;7.00;95.90;;;;;;5035880;28;20056;-83
2022/04/09 01:05:50;;;;;;;14.45;2.00;;;7.00;95.90;;;;;;5036033;28;20033;-82
2022/04/09 01:08:16;;;;;;;12.27;1.40;;;7.00;95.90;;;;;;5036593;28;20029;-83
2022/04/09 01:10:50;;;;;;;14.38;2.30;;;7.00;95.90;;;;;;5036065;28;20060;-82
2022/04/09 01:13:16;;;;;;;13.07;1.42;;;7.10;95.90;;;;;;5036057;28;20037;-82
2022/04/09 01:15:42;;;;;;;15.90;1.67;;;7.00;95.80;;;;;;5035658;28;20025;-82
2022/04/09 01:18:09;;;;;;;15.30;1.80;;;7.10;95.80;;;;;;5036179;28;20027;-82
2022/04/09 01:20:35;;;;;;;13.23;1.70;;;7.00;95.80;;;;;;5035581;28;20432;-80
2022/04/09 01:23:00;;;;;;;13.15;1.63;;;7.00;95.80;;;;;;5035618;28;20086;-79
2022/04/09 01:25:26;;;;;;;10.23;1.40;;;7.00;95.70;;;;;;5035873;28;20065;-80
2022/04/09 01:27:52;;;;;;;13.18;1.83;;;7.00;95.70;;;;;;5035724;28;20388;-79
2022/04/09 01:30:17;;;;;;;17.45;1.83;;;7.00;95.70;;;;;;5035948;28;20383;-79
2022/04/09 01:32:44;;;;;;;15.73;1.58;;;6.90;95.70;;;;;;5035421;28;20030;-79
2022/04/09 01:35:09;;;;;;;11.02;1.38;;;6.80;95.80;;;;;;5035530;28;20057;-79
2022/04/09 01:37:35;;;;;;;16.27;1.80;;;6.80;95.90;;;;;;5034623;28;20103;-79
2022/04/09 01:40:01;;;;;;;11.43;1.23;;;6.70;96.00;;;;;;5035343;28;20067;-79
2022/04/09 01:42:27;;;;;;;11.52;1.83;;;6.70;96.00;;;;;;5035565;28;20040;-79
2022/04/09 01:44:53;;;;;;;12.95;1.60;;;6.80;96.00;;;;;;5035377;28;20033;-80
2022/04/09 01:47:18;;;;;;;10.07;1.42;;;6.70;96.00;;;;;;5035523;28;20436;-80
2022/04/09 01:49:44;;;;;;;7.75;1.33;;;6.70;96.00;;;;;;5035530;28;20087;-80
2022/04/09 01:52:10;;;;;;;15.25;1.60;;;6.70;96.00;;;;;;5035632;28;20026;-80
2022/04/09 01:54:35;;;;;;;13.68;1.52;;;6.80;95.90;;;;;;5035462;28;20095;-80
2022/04/09 01:57:01;;;;;;;15.27;1.67;;;6.70;95.90;;;;;;5035166;28;20033;-80
2022/04/09 01:59:27;;;;;;;11.73;1.20;;;6.70;95.90;;;;;;5035305;28;20041;-80
2022/04/09 02:01:52;;;;;;;11.88;2.00;;;6.60;95.90;;;;;;5034832;28;20036;-80
2022/04/09 02:04:18;;;;;;;18.98;2.05;;;6.60;96.20;;;;;;5035512;28;20029;-79
2022/04/09 02:06:44;;;;;;;13.00;1.30;;;6.60;96.00;;;;;;5034656;28;20460;-79
2022/04/09 02:09:13;;;;;;;9.65;1.90;;;6.70;95.90;;;;;;5035244;28;20115;-79
2022/04/09 02:11:39;;;;;;;12.07;1.13;;;6.70;95.90;;;;;;5034663;28;20362;-79
2022/04/09 02:14:07;;;;;;;10.07;1.50;;;6.70;95.80;;;;;;5035311;28;20397;-79
2022/04/09 02:16:33;;;;;;;15.48;1.30;;;6.70;95.80;;;;;;5034545;28;20477;-79
2022/04/09 02:18:59;;;;;;;11.10;1.60;;;6.70;95.90;;;;;;5034963;28;20032;-79
2022/04/09 02:21:25;;;;;;;13.20;1.65;;;6.60;96.00;;;;;;5034346;28;20103;-79
2022/04/09 02:23:50;;;;;;;13.98;1.40;;;6.60;96.00;;;;;;5035058;28;20026;-79
2022/04/09 02:26:16;;;;;;;10.10;1.33;;;6.60;96.20;;;;;;5034843;28;20091;-79
2022/04/09 02:28:42;;;;;;;14.13;2.00;;;6.60;96.40;;;;;;5035053;28;20032;-79
2022/04/09 02:31:07;;;;;;;11.40;1.42;;;6.60;96.50;;;;;;5034730;28;20057;-79
2022/04/09 02:33:33;;;;;;;10.60;1.38;;;6.60;96.70;;;;;;5034571;28;20104;-79
2022/04/09 02:35:59;;;;;;;9.90;1.45;;;6.60;96.90;;;;;;5034102;28;20029;-79
2022/04/09 02:38:25;;;;;;;9.73;1.02;;;6.60;96.90;;;;;;5034594;28;20108;-79
2022/04/09 02:40:51;;;;;;;12.38;1.33;;;6.60;96.90;;;;;;5033777;28;20037;-79
2022/04/09 02:43:16;;;;;;;8.63;1.00;;;6.60;96.90;;;;;;5034637;28;20080;-79
2022/04/09 02:45:42;;;;;;;8.23;0.73;;;6.60;96.90;;;;;;5034140;28;20116;-79
2022/04/09 02:48:08;;;;;;;10.13;0.90;;;6.60;96.90;;;;;;5034803;28;20045;-79
2022/04/09 02:50:33;;;;;;;9.23;1.60;;;6.40;97.10;;;;;;5033567;28;20112;-79
2022/04/09 02:52:59;;;;;;;9.48;1.00;;;6.50;97.20;;;;;;5034331;28;20442;-79
2022/04/09 02:55:24;;;;;;;8.20;1.13;;;6.40;97.20;;;;;;5033890;28;20029;-79
2022/04/09 02:57:50;;;;;;;6.93;1.38;;;6.50;97.30;;;;;;5034359;28;20060;-79
2022/04/09 03:00:16;;;;;;;6.38;0.70;;;6.50;97.20;;;;;;5033944;28;20037;-79
2022/04/09 03:02:43;;;;;;;7.30;0.60;;;6.50;97.20;;;;;;5034029;28;20037;-79
2022/04/09 03:05:10;;;;;;;6.03;0.68;;;6.40;97.20;;;;;;5033736;28;20026;-79
2022/04/09 03:07:35;;;;;;;6.15;0.50;;;6.40;97.20;;;;;;5034284;28;20021;-79
2022/04/09 03:10:02;;;;;;;7.80;0.80;;;6.40;97.20;;;;;;5034047;28;20396;-79
2022/04/09 03:12:28;;;;;;;5.43;0.65;;;6.40;97.20;;;;;;5033898;28;20045;-79
2022/04/09 03:14:54;;;;;;;15.20;1.23;;;6.50;97.20;;;;;;5033599;28;20109;-79
2022/04/09 03:17:19;;;;;;;5.60;0.55;;;6.50;97.20;;;;;;5033441;28;20079;-79
2022/04/09 03:19:45;;;;;;;8.48;0.60;;;6.40;97.30;;;;;;5033690;28;20037;-81
2022/04/09 03:22:10;;;;;;;6.50;0.63;;;6.40;97.30;;;;;;5034004;28;20038;-80
2022/04/09 03:24:36;;;;;;;5.68;0.98;;;6.50;97.40;;;;;;5033769;28;20037;-80
2022/04/09 03:27:02;;;;;;;12.70;1.05;;;6.40;97.80;;;;;;5033749;28;20057;-79
2022/04/09 03:29:28;;;;;;;8.45;1.08;;;6.40;97.60;;;;;;5053785;28;20025;-80
2022/04/09 03:31:53;;;;;;;10.07;0.93;;;6.50;97.70;;;;;;5047542;28;20021;-80
2022/04/09 03:34:19;;;;;;;8.45;0.88;;;6.40;97.70;;;;;;5033865;28;20075;-80
2022/04/09 03:36:44;;;;;;;10.13;0.80;;;6.40;97.90;;;;;;5034164;28;20026;-80
2022/04/09 03:39:10;;;;;;;8.73;0.90;;;6.30;98.00;;;;;;5033822;28;20025;-80
2022/04/09 03:41:36;;;;;;;11.73;1.25;;;6.30;98.00;;;;;;5034100;28;20044;-79
2022/04/09 03:44:02;;;;;;;11.75;1.35;;;6.30;98.10;;;;;;5039628;28;20024;-79
2022/04/09 03:46:27;;;;;;;7.25;1.30;;;6.30;98.10;;;;;;5053658;28;20071;-79
2022/04/09 03:48:53;;;;;;;8.63;0.80;;;6.40;98.00;;;;;;5053737;28;20078;-79
2022/04/09 03:51:18;;;;;;;12.02;1.00;;;6.30;98.10;;;;;;5053565;28;20049;-80
2022/04/09 03:53:44;;;;;;;11.02;0.90;;;6.30;98.10;;;;;;5053786;28;20112;-80
2022/04/09 03:56:10;;;;;;;13.65;1.10;;;6.30;98.40;;;;;;5053737;28;20029;-80
2022/04/09 03:58:38;;;;;;;7.82;0.88;;;6.30;98.30;;;;;;5053408;28;20464;-80
2022/04/09 04:01:04;;;;;;;7.20;0.82;;;6.20;98.30;;;;;;5052760;28;20120;-80
2022/04/09 04:03:29;;;;;;;12.50;1.30;;;6.30;98.40;;;;;;5053289;28;20103;-80
2022/04/09 04:05:55;;;;;;;11.23;1.60;;;6.20;98.40;;;;;;5053566;28;20422;-80
2022/04/09 04:08:21;;;;;;;10.27;1.35;;;6.20;98.70;;;;;;5053423;28;20439;-81
2022/04/09 04:10:47;;;;;;;15.40;1.27;;;6.20;98.50;;;;;;5053368;28;20380;-80
2022/04/09 04:13:13;;;;;;;7.55;1.20;;;6.20;98.60;;;;;;5053181;28;20400;-80
2022/04/09 04:15:40;;;;;;;9.80;1.02;;;6.10;98.60;;;;;;5053222;28;20025;-81
2022/04/09 04:18:06;;;;;;;9.95;0.80;;;6.20;98.70;;;;;;5053414;28;20357;-81
2022/04/09 04:20:33;;;;;;;10.30;1.23;;;6.20;98.70;;;;;;5046929;28;20026;-81
2022/04/09 04:22:58;;;;;;;11.55;1.30;;;6.10;98.70;;;;;;5033217;28;20021;-80
2022/04/09 04:25:25;;;;;;;10.13;1.55;;;6.20;98.80;;;;;;5033249;28;20028;-81
2022/04/09 04:27:51;;;;;;;11.73;1.08;;;6.20;98.90;;;;;;5033217;28;20100;-81
2022/04/09 04:30:17;;;;;;;12.48;1.10;;;6.20;99.20;;;;;;5032345;28;20477;-80
2022/04/09 04:32:43;;;;;;;13.80;2.55;;;6.20;98.90;;;;;;5038246;28;20013;-80
2022/04/09 04:35:09;;;;;;;11.95;1.58;;;6.30;98.90;;;;;;5053271;28;20051;-80
2022/04/09 04:37:39;;;;;;;14.65;1.45;;;6.30;98.80;;;;;;5040873;28;20429;-80
2022/04/09 04:40:06;;;;;;;13.30;1.25;;;6.30;98.70;;;;;;5032930;28;20437;-80
2022/04/09 04:42:32;;;;;;;13.30;1.13;;;6.30;98.70;;;;;;5031512;28;20484;-81
2022/04/09 04:44:57;;;;;;;11.18;1.40;;;6.30;98.70;;;;;;5033035;28;20087;-81
2022/04/09 04:47:23;;;;;;;7.00;0.75;;;6.30;98.60;;;;;;5032949;28;20532;-81
2022/04/09 04:49:48;;;;;;;12.32;1.65;;;6.40;98.70;;;;;;5020516;28;20075;-81
2022/04/09 04:52:14;;;;;;;9.60;1.10;;;6.40;98.60;;;;;;5012947;28;20034;-81
2022/04/09 04:54:40;;;;;;;9.93;0.90;;;6.40;98.40;;;;;;5013080;28;20026;-81
2022/04/09 04:57:05;;;;;;;11.18;0.90;;;6.40;98.40;;;;;;5013267;28;20034;-81
2022/04/09 04:59:31;;;;;;;10.30;0.75;;;6.40;97.80;;;;;;5012687;28;20088;-81
2022/04/09 05:01:57;;;;;;;8.98;0.90;;;6.40;97.60;;;;;;5012843;28;20045;-81
2022/04/09 05:04:25;;;;;;;9.50;0.57;;;6.40;97.30;;;;;;5013102;28;20073;-82
2022/04/09 05:06:51;;;;;;;6.03;0.50;;;6.40;97.10;;;;;;5013040;28;20032;-81
2022/04/09 05:09:17;;;;;;;10.18;0.80;;;6.40;97.20;;;;;;5013074;28;20034;-81
2022/04/09 05:11:43;;;;;;;9.55;1.23;;;6.40;97.10;;;;;;5013043;28;20493;-81
2022/04/09 05:14:09;;;;;;;8.40;0.70;;;6.40;97.10;;;;;;5016796;28;20038;-82
2022/04/09 05:16:34;;;;;;;8.35;0.85;;;6.40;97.20;;;;;;5016679;28;20055;-81
2022/04/09 05:19:00;;;;;;;4.53;0.40;;;6.50;97.20;;;;;;5016701;28;20057;-79
2022/04/09 05:21:26;;;;;;;8.98;0.70;;;6.50;97.30;;;;;;5016528;28;20528;-79
2022/04/09 05:23:51;;;;;;;7.18;0.50;;;6.50;97.20;;;;;;5016663;28;20072;-80
2022/04/09 05:26:17;;;;;;;11.75;1.17;;;6.40;97.30;;;;;;5040771;28;20487;-80
2022/04/09 05:28:42;;;;;;;7.18;0.80;;;6.40;97.60;;;;;;5056276;28;20075;-80
2022/04/09 05:31:11;;;;;;;7.60;0.90;;;6.40;97.80;;;;;;5056390;28;20031;-81
2022/04/09 05:33:38;;;;;;;9.85;0.93;;;6.30;97.90;;;;;;5049663;28;20091;-77
2022/04/09 05:36:05;;;;;;;5.80;1.17;;;6.30;98.10;;;;;;5036090;28;20057;-78
2022/04/09 05:38:31;;;;;;;9.45;0.75;;;6.30;98.20;;;;;;5035459;28;20022;-78
2022/04/09 05:40:57;;;;;;;7.43;1.00;;;6.30;98.50;;;;;;5035350;28;20038;-80
2022/04/09 05:43:23;;;;;;;11.10;1.08;;;6.40;98.50;;;;;;5035514;28;20026;-80
2022/04/09 05:45:49;;;;;;;8.90;0.77;;;6.40;98.70;;;;;;5043551;28;20096;-80
2022/04/09 05:48:15;;;;;;;8.68;0.82;;;6.50;98.60;;;;;;5056067;28;20148;-79
2022/04/09 05:50:40;;;;;;;12.98;0.80;;;6.50;98.60;;;;;;5041045;28;20075;-80
2022/04/09 05:53:06;;;;;;;12.05;1.38;;;6.60;98.80;;;;;;5035821;28;20033;-81
2022/04/09 05:55:32;;;;;;;10.50;0.88;;;6.70;98.60;;;;;;5035544;28;20032;-81
2022/04/09 05:57:58;;;;;;;8.18;0.80;;;6.80;98.40;;;;;;5035693;28;20104;-79
2022/04/09 06:00:24;;;;;;;10.45;0.70;;;6.80;98.50;;;;;;5035792;28;20376;-78
2022/04/09 06:02:49;;;;;;;7.70;1.15;;;6.90;98.20;;;;;;5049670;28;20025;-79
2022/04/09 06:05:15;;;;;;;8.10;0.82;;;7.00;97.80;;;;;;5055554;28;20031;-79
2022/04/09 06:07:40;;;;;;;11.15;1.15;;;7.00;97.30;;;;;;5055746;28;20337;-75
2022/04/09 06:10:08;;;;;;;5.90;0.95;;;7.00;97.10;;;;;;5055524;28;20029;-78
2022/04/09 06:12:34;;;;;;;10.50;1.10;;;7.10;97.10;;;;;;5054953;28;20037;-79
2022/04/09 06:15:03;;;;;;;10.27;1.80;;;7.10;97.00;;;;;;5055398;28;20098;-77
2022/04/09 06:17:29;;;;;;;7.07;0.80;;;7.10;97.10;;;;;;5055496;28;20035;-77
2022/04/09 06:19:55;;;;;;;7.32;0.95;;;7.20;97.00;;;;;;5055408;28;20410;-77
2022/04/09 06:22:20;;;;;;;11.98;1.30;;;7.20;96.80;;;;;;5055436;28;20025;-77
2022/04/09 06:24:46;;;;;;;8.98;0.98;;;7.10;97.00;;;;;;5054330;28;20048;-76
2022/04/09 06:27:12;;;;;;;10.98;0.90;;;7.10;97.20;;;;;;5039401;28;20380;-75
2022/04/09 06:29:37;;;;;;;5.53;0.70;;;7.00;97.10;;;;;;5034094;28;20053;-75
2022/04/09 06:32:04;;;;;;;6.47;0.57;;;7.10;97.20;;;;;;5033663;28;20093;-76
2022/04/09 06:34:29;;;;;;;9.00;0.57;;;7.10;97.40;;;;;;5033897;28;20036;-76
2022/04/09 06:36:55;;;;;;;8.88;1.85;;;7.10;97.10;;;;;;5033733;28;20465;-76
2022/04/09 06:39:22;;;;;;;7.25;0.57;;;7.20;97.00;;;;;;5048510;28;20025;-78
2022/04/09 06:41:49;;;;;;;6.53;0.60;;;7.20;96.90;;;;;;5054788;28;20535;-78
2022/04/09 06:44:15;;;;;;;7.90;0.68;;;7.30;96.70;;;;;;5043054;28;20104;-78
2022/04/09 06:46:43;;;;;;;5.50;0.57;;;7.40;96.80;;;;;;5049881;28;20407;-78
2022/04/09 06:49:11;;;;;;;8.18;0.82;;;7.40;96.60;;;;;;5053040;28;20025;-76
2022/04/09 06:51:37;;;;;;;5.93;0.60;;;7.40;96.70;;;;;;5034945;28;20032;-77
2022/04/09 06:54:02;;;;;;;7.97;0.93;;;7.50;96.80;;;;;;5034925;28;20026;-76
2022/04/09 06:56:28;;;;;;;5.13;0.80;;;7.40;96.70;;;;;;5034475;28;20034;-76
2022/04/09 06:58:53;;;;;;;10.65;0.98;;;7.50;96.70;;;;;;5034749;28;20410;-79
2022/04/09 07:01:19;;;;;;;9.75;1.20;;;7.50;96.80;;;;;;5036328;28;20393;-80
2022/04/09 07:03:44;;;;;;;7.65;0.90;;;7.60;96.70;;;;;;5054509;28;20071;-83
2022/04/09 07:06:10;;;;;;;16.60;1.48;;;7.60;96.70;;;;;;5054393;28;20074;-82
2022/04/09 07:08:36;;;;;;;8.15;1.10;;;7.70;96.80;;;;;;5054539;28;20025;-79
2022/04/09 07:11:01;;;;;;;8.15;1.30;;;7.70;97.00;;;;;;5053637;28;20083;-83
2022/04/09 07:13:28;;;;;;;8.30;1.35;;;7.70;97.10;;;;;;5054007;28;20041;-80
2022/04/09 07:15:54;;;;;;;10.65;1.45;;;7.80;97.40;;;;;;5054225;28;20037;-80
2022/04/09 07:18:20;;;;;;;11.98;1.58;;;7.80;97.60;;;;;;5054478;28;20021;-80
2022/04/09 07:20:45;;;;;;;10.20;1.30;;;7.80;97.70;;;;;;5054245;28;20059;-83
2022/04/09 07:23:11;;;;;;;12.45;1.17;;;8.00;97.50;;;;;;5053905;28;20379;-81
2022/04/09 07:25:37;;;;;;;6.30;0.85;;;8.10;97.00;;;;;;5054023;28;20025;-80
2022/04/09 07:28:03;;;;;;;16.17;2.30;;;8.20;96.40;;;;;;5053860;28;20506;-81
2022/04/09 07:30:29;;;;;;;7.60;1.10;;;8.20;95.80;;;;;;5053470;28;20025;-85
2022/04/09 07:32:58;;;;;;;10.02;1.38;;;8.30;95.70;;;;;;5054030;28;20456;-80
2022/04/09 07:35:24;;;;;;;7.78;1.10;;;8.50;95.50;;;;;;5053303;28;20037;-84
2022/04/09 07:37:54;;;;;;;11.73;1.38;;;8.50;95.30;;;;;;5052061;28;20047;-83
2022/04/09 07:40:21;;;;;;;6.85;0.70;;;8.50;95.30;;;;;;5032909;28;20034;-83
2022/04/09 07:42:47;;;;;;;7.57;0.95;;;8.40;95.40;;;;;;5033647;28;20025;-84
2022/04/09 07:45:14;;;;;;;8.20;0.50;;;8.30;95.50;;;;;;5033239;28;20033;-84
2022/04/09 07:47:41;;;;;;;5.88;0.50;;;8.30;95.20;;;;;;5033588;28;20029;-84
2022/04/09 07:50:10;;;;;;;4.15;0.45;;;8.20;95.00;;;;;;5032512;28;20033;-84
2022/04/09 07:52:37;;;;;;;4.30;0.40;;;8.20;95.30;;;;;;5037937;28;20033;-82
2022/04/09 07:55:03;;;;;;;4.32;0.43;;;8.10;95.20;;;;;;5053262;28;20033;-83
2022/04/09 07:57:29;;;;;;;4.50;0.38;;;8.00;95.20;;;;;;5042238;28;20034;-83
2022/04/09 07:59:56;;;;;;;4.32;0.68;;;8.00;95.40;;;;;;5033567;28;20030;-82
2022/04/09 08:02:22;;;;;;;4.45;0.50;;;8.00;95.50;;;;;;5033406;28;20083;-82
2022/04/09 08:04:48;;;;;;;4.10;0.60;;;8.10;95.70;;;;;;5033435;28;20040;-84
2022/04/09 08:07:13;;;;;;;4.03;0.40;;;8.30;95.80;;;;;;5033211;28;20520;-83
2022/04/09 08:09:39;;;;;;;5.30;0.57;;;8.40;95.80;;;;;;5044524;28;20035;-83
2022/04/09 08:12:05;;;;;;;5.30;0.50;;;8.50;95.70;;;;;;5053210;28;20036;-83
2022/04/09 08:14:32;;;;;;;5.43;0.70;;;8.70;95.60;;;;;;5048194;28;20358;-82
2022/04/09 08:16:59;;;;;;;8.77;0.70;;;8.70;94.70;;;;;;5013326;28;20054;-82
2022/04/09 08:19:25;;;;;;;4.60;0.60;;;8.80;94.60;;;;;;5013739;28;20057;-84
2022/04/09 08:21:52;;;;;;;6.53;1.55;;;8.90;94.70;;;;;;5013639;28;20050;-83
2022/04/09 08:24:17;;;;;;;4.18;0.50;;;9.00;94.50;;;;;;5013709;28;20026;-84
2022/04/09 08:26:43;;;;;;;4.82;0.93;;;9.20;94.20;;;;;;5013391;28;20416;-84
2022/04/09 08:29:10;;;;;;;4.38;0.43;;;9.20;92.90;;;;;;5013724;28;20045;-84
2022/04/09 08:31:35;;;;;;;5.35;0.35;;;9.30;92.20;;;;;;5013644;28;20354;-84
2022/04/09 08:34:01;;;;;;;5.03;0.40;;;9.40;92.10;;;;;;5013472;28;20029;-84
2022/04/09 08:36:27;;;;;;;2.72;0.30;;;9.50;91.90;;;;;;5013140;28;20465;-84
2022/04/09 08:38:52;;;;;;;7.47;0.50;;;9.70;91.20;;;;;;5013396;28;20037;-84
2022/04/09 08:41:19;;;;;;;8.35;0.60;;;9.80;88.90;;;;;;5013259;28;20033;-84
2022/04/09 08:43:45;;;;;;;4.13;0.30;;;9.80;87.90;;;;;;5013196;28;20516;-81
2022/04/09 08:46:11;;;;;;;4.05;0.30;;;9.90;87.50;;;;;;5035461;28;20029;-82
2022/04/09 08:48:38;;;;;;;6.65;0.57;;;9.70;88.00;;;;;;5056175;28;20112;-82
2022/04/09 08:51:03;;;;;;;6.93;0.40;;;9.50;89.20;;;;;;5056779;28;20071;-83
2022/04/09 08:53:29;;;;;;;8.57;0.60;;;9.30;88.40;;;;;;5043524;28;20029;-88
2022/04/09 08:55:54;;;;;;;5.72;0.45;;;9.30;89.60;;;;;;5036494;28;20029;-80
2022/04/09 08:58:20;;;;;;;5.82;0.43;;;9.20;90.00;;;;;;5036077;28;20112;-79
2022/04/09 09:00:47;;;;;;;5.15;0.65;;;9.20;90.30;;;;;;5049783;28;20036;-85
2022/04/09 09:03:15;;;;;;;12.65;0.80;;;9.20;90.90;;;;;;5056744;28;20025;-78
2022/04/09 09:05:43;;;;;;;7.43;0.55;;;9.40;91.10;;;;;;5036800;28;20426;-78
2022/04/09 09:08:10;;;;;;;7.20;0.65;;;9.70;90.80;;;;;;5036408;28;20025;-78
2022/04/09 09:10:36;;;;;;;9.38;0.98;;;10.00;90.40;;;;;;5036802;28;20068;-78
2022/04/09 09:13:06;;;;;;;6.35;0.63;;;10.20;88.50;;;;;;5036493;28;20053;-78
2022/04/09 09:15:46;;;;;;;8.48;1.33;;;10.30;86.50;;;;;;5037145;28;20032;-78
2022/04/09 09:18:26;;;;;;;3.85;0.80;;;10.30;86.90;;;;;;5056633;28;20025;-78
2022/04/09 09:20:53;;;;;;;7.93;0.82;;;10.40;86.30;;;;;;5056202;28;20387;-78
2022/04/09 09:23:27;;;;;;;8.10;0.70;;;10.50;85.00;;;;;;5056366;28;20028;-77
2022/04/09 09:25:57;;;;;;;7.20;0.57;;;10.40;82.20;;;;;;5056224;28;20025;-77
2022/04/09 09:28:27;;;;;;;5.28;0.65;;;10.20;82.60;;;;;;5056205;28;20021;-78
2022/04/09 09:30:54;;;;;;;5.35;1.02;;;10.00;82.10;;;;;;5056039;28;20460;-77
2022/04/09 09:33:20;;;;;;;7.82;0.63;;;9.90;83.80;;;;;;5056359;28;20025;-77
2022/04/09 09:35:49;;;;;;;7.10;0.68;;;10.00;84.90;;;;;;5055877;28;20364;-78
2022/04/09 09:38:21;;;;;;;6.78;0.60;;;10.00;83.50;;;;;;5056291;28;20035;-77
2022/04/09 09:40:47;;;;;;;3.85;0.45;;;9.90;84.00;;;;;;5055703;28;20123;-78
2022/04/09 09:43:17;;;;;;;6.80;0.60;;;9.90;84.80;;;;;;5056114;28;20028;-78
2022/04/09 09:45:43;;;;;;;7.72;0.88;;;9.90;86.50;;;;;;5056136;28;20029;-77
2022/04/09 09:48:23;;;;;;;4.40;0.77;;;10.10;89.10;;;;;;5055814;28;20025;-78
2022/04/09 09:50:49;;;;;;;5.28;0.40;;;10.40;87.60;;;;;;5055693;28;20029;-78
2022/04/09 09:53:15;;;;;;;5.57;0.70;;;10.40;84.80;;;;;;5045200;28;20137;-77
2022/04/09 09:55:45;;;;;;;4.13;0.60;;;10.20;85.80;;;;;;5035581;28;20080;-77
2022/04/09 09:58:15;;;;;;;6.93;0.70;;;10.00;90.10;;;;;;5035525;28;20138;-77
2022/04/09 10:00:41;;;;;;;10.20;0.93;;;9.60;91.60;;;;;;5033918;28;20395;-77
2022/04/09 10:03:09;;;;;;;4.97;0.50;;;9.30;92.80;;;;;;5035417;28;20099;-77
2022/04/09 10:05:38;;;;;;;5.10;0.52;;;8.70;94.30;;;;;;5041245;28;20021;-77
2022/04/09 10:08:05;;;;;;;3.20;0.30;;;8.30;95.40;;;;;;5055400;28;20035;-77
2022/04/09 10:10:36;;;;;;;2.60;0.10;;;7.90;95.90;;;;;;5042008;28;20040;-77
2022/04/09 10:13:06;;;;;;;2.35;0.20;;;7.60;96.40;;;;;;5035275;28;20121;-77
2022/04/09 10:15:32;;;;;;;3.15;0.38;;;7.50;97.20;;;;;;5035621;28;20392;-77
2022/04/09 10:17:59;;;;;;;2.90;0.20;;;7.50;97.60;;;;;;5035503;28;20419;-77
2022/04/09 10:20:26;;;;;;;3.28;0.38;;;7.40;97.80;;;;;;5035372;28;20030;-77
2022/04/09 10:22:57;;;;;;;4.82;0.30;;;7.40;97.70;;;;;;5049850;28;20051;-77
2022/04/09 10:25:29;;;;;;;3.00;0.20;;;7.40;97.90;;;;;;5054884;28;20476;-77
2022/04/09 10:28:03;;;;;;;3.95;0.30;;;7.50;98.00;;;;;;5055148;28;20051;-77
2022/04/09 10:30:39;;;;;;;2.38;0.20;;;7.60;97.90;;;;;;5055049;28;20029;-77
2022/04/09 10:33:23;;;;;;;2.50;0.20;;;7.60;98.00;;;;;;5054915;28;20025;-77
2022/04/09 10:35:49;;;;;;;3.95;0.30;;;7.70;98.60;;;;;;5054984;28;20025;-77
2022/04/09 10:38:16;;;;;;;3.95;0.30;;;7.70;98.80;;;;;;5055069;28;20028;-77
2022/04/09 10:40:49;;;;;;;3.28;0.70;;;7.60;98.80;;;;;;5054809;28;20032;-77
2022/04/09 10:43:24;;;;;;;4.13;0.63;;;7.70;99.50;;;;;;5054700;28;20053;-77
2022/04/09 10:46:02;;;;;;;3.85;0.40;;;7.90;99.90;;;;;;5054999;28;20450;-77
2022/04/09 10:48:34;;;;;;;5.82;0.30;;;8.10;99.20;;;;;;5054553;28;20024;-77
2022/04/09 10:51:01;;;;;;;4.47;0.20;;;8.20;99.00;;;;;;5054506;28;20081;-77
2022/04/09 10:53:31;;;;;;;2.67;0.20;;;8.10;98.30;;;;;;5054491;28;20533;-77
2022/04/09 10:56:09;;;;;;;2.20;0.17;;;8.00;97.10;;;;;;5054824;28;20052;-78
2022/04/09 10:59:04;;;;;;;1.38;0.20;;;8.00;97.30;;;;;;5046792;28;20021;-78
2022/04/09 11:01:48;;;;;;;3.25;0.30;;;8.00;97.00;;;;;;5034461;28;20041;-77
2022/04/09 11:04:34;;;;;;;3.58;0.30;;;8.10;97.60;;;;;;5034098;28;20121;-78
2022/04/09 11:07:18;;;;;;;4.10;0.40;;;8.50;98.00;;;;;;5033919;28;20094;-76
2022/04/09 11:09:56;;;;;;;5.35;0.52;;;8.60;97.60;;;;;;5033305;28;20105;-76
2022/04/09 11:12:28;;;;;;;6.85;0.52;;;8.60;97.10;;;;;;5037752;28;20055;-76
2022/04/09 11:15:02;;;;;;;2.95;0.40;;;8.60;97.50;;;;;;5053853;28;20021;-76
2022/04/09 11:17:38;;;;;;;3.63;0.30;;;8.60;97.80;;;;;;5039265;28;20029;-76
2022/04/09 11:20:10;;;;;;;2.88;0.20;;;8.50;95.40;;;;;;5034241;28;20130;-77
2022/04/09 11:22:39;;;;;;;4.72;0.80;;;8.30;95.40;;;;;;5033948;28;20029;-76
2022/04/09 11:25:06;;;;;;;6.07;0.63;;;8.20;96.80;;;;;;5033939;28;20018;-77
2022/04/09 11:27:33;;;;;;;2.58;0.30;;;8.10;97.60;;;;;;5033563;28;20108;-77
2022/04/09 11:29:59;;;;;;;3.45;0.30;;;8.10;97.80;;;;;;5051422;28;20471;-76
2022/04/09 11:32:26;;;;;;;3.45;0.38;;;8.00;97.70;;;;;;5053816;28;20025;-78
2022/04/09 11:34:58;;;;;;;2.97;0.77;;;8.00;97.90;;;;;;5053492;28;20028;-77
2022/04/09 11:37:29;;;;;;;3.50;0.50;;;8.00;98.20;;;;;;5053513;28;20478;-77
2022/04/09 11:39:56;;;;;;;5.85;0.43;;;8.00;98.40;;;;;;5053853;28;20135;-77
2022/04/09 11:42:22;;;;;;;5.40;0.68;;;8.10;98.60;;;;;;5053777;28;20448;-77
2022/04/09 11:44:48;;;;;;;4.78;0.52;;;8.20;98.80;;;;;;5053308;28;20108;-77
2022/04/09 11:47:15;;;;;;;4.95;0.80;;;8.20;98.70;;;;;;5048428;28;20030;-77
2022/04/09 11:49:42;;;;;;;8.13;0.55;;;8.40;98.00;;;;;;5013919;28;20030;-77
2022/04/09 11:52:08;;;;;;;5.80;0.50;;;8.40;98.20;;;;;;5013880;28;20476;-77
2022/04/09 11:54:36;;;;;;;6.93;0.50;;;8.60;98.50;;;;;;5013985;28;20034;-77
2022/04/09 11:57:03;;;;;;;7.55;1.15;;;8.90;98.10;;;;;;5013697;28;20026;-77
2022/04/09 11:59:29;;;;;;;7.25;0.55;;;9.00;97.70;;;;;;5013756;28;20026;-77
2022/04/09 12:01:56;;;;;;;5.20;0.50;;;9.10;97.40;;;;;;5013531;28;20038;-77
2022/04/09 12:04:23;;;;;;;4.25;0.63;;;9.30;96.70;;;;;;5013482;28;20469;-77
2022/04/09 12:06:49;;;;;;;6.28;0.77;;;9.50;96.60;;;;;;5033163;28;20033;-77
2022/04/09 12:09:15;;;;;;;5.53;0.52;;;9.70;96.60;;;;;;5032932;28;20049;-77
2022/04/09 12:11:54;;;;;;;3.78;0.40;;;9.80;95.60;;;;;;5033167;28;20053;-76
2022/04/09 12:14:20;;;;;;;5.53;0.60;;;9.60;95.30;;;;;;5052822;28;20032;-76
2022/04/09 12:16:47;;;;;;;5.47;0.60;;;9.40;95.90;;;;;;5043473;28;20539;-76
2022/04/09 12:19:13;;;;;;;6.82;0.60;;;9.10;96.00;;;;;;5033360;28;20029;-77
2022/04/09 12:21:39;;;;;;;3.80;0.30;;;8.70;95.50;;;;;;5032352;28;20118;-76
2022/04/09 12:24:06;;;;;;;2.42;0.40;;;8.40;95.00;;;;;;5033069;28;20028;-76
2022/04/09 12:26:34;;;;;;;3.60;0.20;;;8.10;95.30;;;;;;5033269;28;20036;-77
2022/04/09 12:29:19;;;;;;;3.15;0.30;;;7.90;95.90;;;;;;5042631;28;20099;-77
2022/04/09 12:31:51;;;;;;;2.88;0.30;;;7.90;96.40;;;;;;5052898;28;20105;-77
2022/04/09 12:34:18;;;;;;;2.38;0.20;;;7.90;96.70;;;;;;5053170;28;20032;-77
2022/04/09 12:37:04;;;;;;;2.90;0.90;;;8.00;97.10;;;;;;5052989;28;20032;-77
2022/04/09 12:39:33;;;;;;;4.43;0.30;;;8.30;97.50;;;;;;5052941;28;20031;-77
2022/04/09 12:41:59;;;;;;;3.55;0.30;;;8.60;97.60;;;;;;5053031;28;20032;-77
2022/04/09 12:44:30;;;;;;;3.10;0.20;;;8.90;97.70;;;;;;5052946;28;20048;-77
2022/04/09 12:46:56;;;;;;;2.50;0.20;;;9.20;97.80;;;;;;5052406;28;20087;-77
2022/04/09 12:49:29;;;;;;;4.68;0.20;;;9.30;97.10;;;;;;5052812;28;20032;-77
2022/04/09 12:51:56;;;;;;;3.58;0.40;;;9.20;96.70;;;;;;5052588;28;20025;-77
2022/04/09 12:54:21;;;;;;;3.55;0.25;;;9.10;96.50;;;;;;5052599;28;20475;-77
2022/04/09 12:56:47;;;;;;;1.92;0.20;;;9.10;96.40;;;;;;5052250;28;20051;-77